createdAt,value
2022-10-12T00:01:15.815Z,95663.94
2022-10-12T00:03:43.087Z,95663.13
2022-10-12T00:06:13.209Z,95644.03
2022-10-12T00:08:42.056Z,95669.16
2022-10-12T00:11:13.805Z,95659.78
2022-10-12T00:13:40.965Z,95661.25
2022-10-12T00:16:09.713Z,95658.41
2022-10-12T00:18:37.687Z,95651.91
2022-10-12T00:21:13.744Z,95659.19
2022-10-12T00:23:41.989Z,95658.53
2022-10-12T00:26:15.049Z,95648.75
2022-10-12T00:28:42.292Z,95657.31
2022-10-12T00:31:11.436Z,95654.09
2022-10-12T00:33:39.157Z,95651.31
2022-10-12T00:36:17.016Z,95655.00
2022-10-12T00:38:44.173Z,95639.41
2022-10-12T00:41:12.063Z,95646.38
2022-10-12T00:43:42.008Z,95652.19
2022-10-12T00:46:20.305Z,95665.38
2022-10-12T00:48:58.589Z,95657.47
2022-10-12T00:51:26.141Z,95659.75
2022-10-12T00:53:59.754Z,95643.22
2022-10-12T00:56:30.714Z,95642.31
2022-10-12T00:59:00.938Z,95644.22
2022-10-12T01:01:29.909Z,95624.50
2022-10-12T01:03:56.777Z,95640.88
2022-10-12T01:06:23.440Z,95640.97
2022-10-12T01:08:50.639Z,95634.56
2022-10-12T01:11:17.361Z,95642.06
2022-10-12T01:13:44.126Z,95637.06
2022-10-12T01:16:16.850Z,95646.31
2022-10-12T01:19:00.004Z,95643.06
2022-10-12T01:21:27.068Z,95647.59
2022-10-12T01:24:21.868Z,95650.63
2022-10-12T01:27:20.575Z,95642.06
2022-10-12T01:29:56.268Z,95641.06
2022-10-12T01:32:33.776Z,95636.16
2022-10-12T01:35:29.047Z,95645.63
2022-10-12T01:38:15.772Z,95626.41
2022-10-12T01:40:51.021Z,95636.16
2022-10-12T01:43:20.503Z,95642.66
2022-10-12T01:45:47.346Z,95647.47
2022-10-12T01:48:14.339Z,95634.28
2022-10-12T01:51:02.871Z,95638.63
2022-10-12T01:53:45.090Z,95641.56
2022-10-12T01:56:22.868Z,95643.16
2022-10-12T01:59:08.708Z,95640.41
2022-10-12T02:01:48.528Z,95643.16
2022-10-12T02:04:47.831Z,95646.00
2022-10-12T02:07:26.998Z,95646.31
2022-10-12T02:09:58.832Z,95645.13
2022-10-12T02:12:29.473Z,95656.56
2022-10-12T02:15:00.902Z,95657.44
2022-10-12T02:17:30.357Z,95661.19
2022-10-12T02:20:00.294Z,95664.56
2022-10-12T02:22:34.411Z,95659.78
2022-10-12T02:25:06.801Z,95665.31
2022-10-12T02:27:37.129Z,95667.47
2022-10-12T02:30:04.790Z,95672.50
2022-10-12T02:32:39.752Z,95674.97
2022-10-12T02:35:39.093Z,95662.38
2022-10-12T02:38:32.958Z,95676.47
2022-10-12T02:41:08.311Z,95665.31
2022-10-12T02:43:40.203Z,95657.13
2022-10-12T02:46:10.212Z,95662.34
2022-10-12T02:48:40.160Z,95665.13
2022-10-12T02:51:10.622Z,95642.66
2022-10-12T02:53:37.949Z,95660.19
2022-10-12T02:56:10.097Z,95657.84
2022-10-12T02:58:37.185Z,95670.13
2022-10-12T03:01:04.792Z,95659.09
2022-10-12T03:03:31.687Z,95671.22
2022-10-12T03:05:58.465Z,95654.47
2022-10-12T03:08:25.315Z,95662.25
2022-10-12T03:10:52.023Z,95653.28
2022-10-12T03:13:19.567Z,95659.59
2022-10-12T03:15:46.292Z,95668.06
2022-10-12T03:18:13.124Z,95652.88
2022-10-12T03:20:39.821Z,95662.16
2022-10-12T03:23:06.680Z,95658.59
2022-10-12T03:25:33.592Z,95654.88
2022-10-12T03:28:00.444Z,95657.25
2022-10-12T03:30:27.256Z,95660.66
2022-10-12T03:32:54.154Z,95666.69
2022-10-12T03:35:21.024Z,95661.38
2022-10-12T03:37:47.759Z,95660.19
2022-10-12T03:40:14.674Z,95659.91
2022-10-12T03:42:41.505Z,95661.75
2022-10-12T03:45:09.313Z,95659.59
2022-10-12T03:47:38.033Z,95667.09
2022-10-12T03:50:05.674Z,95649.53
2022-10-12T03:52:32.464Z,95661.31
2022-10-12T03:54:59.153Z,95664.22
2022-10-12T03:57:26.194Z,95654.09
2022-10-12T03:59:52.929Z,95664.13
2022-10-12T04:02:19.978Z,95657.00
2022-10-12T04:04:46.691Z,95668.00
2022-10-12T04:07:13.859Z,95668.41
2022-10-12T04:09:40.710Z,95675.78
2022-10-12T04:12:07.473Z,95674.75
2022-10-12T04:14:34.467Z,95677.03
2022-10-12T04:17:01.306Z,95672.59
2022-10-12T04:19:28.608Z,95677.09
2022-10-12T04:21:55.352Z,95679.53
2022-10-12T04:24:22.493Z,95684.44
2022-10-12T04:26:49.208Z,95681.09
2022-10-12T04:29:16.276Z,95681.44
2022-10-12T04:31:43.048Z,95683.25
2022-10-12T04:34:10.530Z,95687.13
2022-10-12T04:36:37.421Z,95683.28
2022-10-12T04:39:04.420Z,95664.88
2022-10-12T04:41:31.334Z,95683.44
2022-10-12T04:43:58.522Z,95674.38
2022-10-12T04:46:25.373Z,95690.88
2022-10-12T04:48:52.325Z,95682.03
2022-10-12T04:51:19.254Z,95685.63
2022-10-12T04:53:46.124Z,95687.47
2022-10-12T04:56:12.927Z,95701.16
2022-10-12T04:58:39.648Z,95698.44
2022-10-12T05:01:06.679Z,95686.03
2022-10-12T05:03:36.118Z,95707.38
2022-10-12T05:06:06.686Z,95704.66
2022-10-12T05:08:33.467Z,95706.19
2022-10-12T05:11:00.427Z,95704.59
2022-10-12T05:13:27.324Z,95708.69
2022-10-12T05:15:54.664Z,95716.75
2022-10-12T05:18:21.770Z,95720.19
2022-10-12T05:20:49.253Z,95717.13
2022-10-12T05:23:18.010Z,95722.84
2022-10-12T05:25:44.762Z,95717.88
2022-10-12T05:28:11.578Z,95724.84
2022-10-12T05:30:39.291Z,95727.28
2022-10-12T05:33:06.058Z,95731.53
2022-10-12T05:35:32.806Z,95727.25
2022-10-12T05:37:59.606Z,95734.25
2022-10-12T05:40:26.360Z,95731.97
2022-10-12T05:42:53.212Z,95734.13
2022-10-12T05:45:19.884Z,95736.25
2022-10-12T05:47:46.604Z,95732.97
2022-10-12T05:50:13.518Z,95736.03
2022-10-12T05:52:40.703Z,95740.34
2022-10-12T05:55:08.449Z,95739.50
2022-10-12T05:57:36.630Z,95743.41
2022-10-12T06:00:05.975Z,95748.19
2022-10-12T06:02:37.998Z,95747.00
2022-10-12T06:05:05.629Z,95751.94
2022-10-12T06:07:32.479Z,95756.63
2022-10-12T06:10:00.242Z,95760.09
2022-10-12T06:12:28.065Z,95765.78
2022-10-12T06:14:55.224Z,95769.25
2022-10-12T06:17:22.041Z,95756.94
2022-10-12T06:19:48.859Z,95769.69
2022-10-12T06:22:15.594Z,95775.56
2022-10-12T06:24:42.539Z,95769.16
2022-10-12T06:27:09.979Z,95767.41
2022-10-12T06:29:38.226Z,95770.38
2022-10-12T06:32:05.210Z,95769.41
2022-10-12T06:34:32.124Z,95770.47
2022-10-12T06:37:01.796Z,95775.13
2022-10-12T06:39:29.047Z,95771.78
2022-10-12T06:41:55.993Z,95770.88
2022-10-12T06:44:22.892Z,95785.16
2022-10-12T06:46:50.515Z,95783.25
2022-10-12T06:49:17.988Z,95779.91
2022-10-12T06:51:44.879Z,95779.84
2022-10-12T06:54:11.728Z,95790.34
2022-10-12T06:56:39.689Z,95786.75
2022-10-12T06:59:06.661Z,95790.84
2022-10-12T07:01:33.636Z,95784.53
2022-10-12T07:04:01.053Z,95783.25
2022-10-12T07:06:28.041Z,95790.47
2022-10-12T07:08:55.611Z,95785.03
2022-10-12T07:11:22.952Z,95780.81
2022-10-12T07:13:49.804Z,95784.03
2022-10-12T07:16:16.758Z,95793.03
2022-10-12T07:18:43.483Z,95786.59
2022-10-12T07:21:10.820Z,95788.97
2022-10-12T07:23:41.363Z,95792.53
2022-10-12T07:26:12.426Z,95788.97
2022-10-12T07:28:39.275Z,95784.44
2022-10-12T07:31:08.237Z,95788.78
2022-10-12T07:33:36.316Z,95798.44
2022-10-12T07:36:13.730Z,95805.72
2022-10-12T07:38:45.223Z,95784.25
2022-10-12T07:41:12.578Z,95792.94
2022-10-12T07:43:39.450Z,95796.47
2022-10-12T07:46:06.732Z,95803.69
2022-10-12T07:48:34.374Z,95794.72
2022-10-12T07:51:09.825Z,95795.09
2022-10-12T07:53:38.362Z,95800.25
2022-10-12T07:56:07.759Z,95803.97
2022-10-12T07:58:35.622Z,95805.56
2022-10-12T08:01:08.623Z,95796.28
2022-10-12T08:03:35.812Z,95806.91
2022-10-12T08:06:14.194Z,95795.31
2022-10-12T08:08:41.898Z,95792.13
2022-10-12T08:11:10.856Z,95798.34
2022-10-12T08:13:38.440Z,95791.38
2022-10-12T08:16:08.500Z,95791.75
2022-10-12T08:18:35.389Z,95802.69
2022-10-12T08:21:05.211Z,95800.09
2022-10-12T08:23:31.984Z,95795.88
2022-10-12T08:25:58.938Z,95801.44
2022-10-12T08:28:25.925Z,95783.53
2022-10-12T08:30:52.758Z,95794.00
2022-10-12T08:33:20.108Z,95790.75
2022-10-12T08:35:48.085Z,95793.50
2022-10-12T08:38:16.530Z,95790.16
2022-10-12T08:40:49.596Z,95799.22
2022-10-12T08:43:42.703Z,95791.13
2022-10-12T08:46:09.932Z,95793.78
2022-10-12T08:48:50.518Z,95795.28
2022-10-12T08:51:24.773Z,95787.00
2022-10-12T08:53:57.854Z,95799.53
2022-10-12T08:56:24.800Z,95798.66
2022-10-12T08:58:53.375Z,95794.91
2022-10-12T09:01:37.338Z,95805.66
2022-10-12T09:04:23.037Z,95797.28
2022-10-12T09:06:58.583Z,95801.00
2022-10-12T09:09:59.003Z,95794.69
2022-10-12T09:12:34.963Z,95793.97
2022-10-12T09:15:09.079Z,95788.59
2022-10-12T09:17:45.164Z,95800.81
2022-10-12T09:20:28.223Z,95790.16
2022-10-12T09:23:01.445Z,95795.69
2022-10-12T09:25:29.349Z,95792.81
2022-10-12T09:28:26.027Z,95795.03
2022-10-12T09:31:05.515Z,95794.63
2022-10-12T09:33:50.845Z,95794.88
2022-10-12T09:36:21.713Z,95796.63
2022-10-12T09:38:50.634Z,95798.63
2022-10-12T09:41:26.304Z,95801.75
2022-10-12T09:43:59.251Z,95799.53
2022-10-12T09:47:02.597Z,95789.09
2022-10-12T09:49:50.796Z,95797.84
2022-10-12T09:52:24.535Z,95799.38
2022-10-12T09:54:58.540Z,95783.09
2022-10-12T09:57:30.632Z,95788.91
2022-10-12T09:59:57.779Z,95783.44
2022-10-12T10:02:26.730Z,95783.28
2022-10-12T10:04:55.296Z,95790.56
2022-10-12T10:07:34.732Z,95782.16
2022-10-12T10:10:17.520Z,95785.84
2022-10-12T10:12:50.389Z,95779.41
2022-10-12T10:15:30.370Z,95775.88
2022-10-12T10:18:02.841Z,95756.59
2022-10-12T10:20:39.083Z,95770.63
2022-10-12T10:23:06.212Z,95777.84
2022-10-12T10:25:34.389Z,95768.00
2022-10-12T10:28:25.676Z,95753.66
2022-10-12T10:31:02.633Z,95753.81
2022-10-12T10:33:36.466Z,95761.81
2022-10-12T10:36:24.161Z,95761.75
2022-10-12T10:38:56.878Z,95755.56
2022-10-12T10:41:41.984Z,95757.19
2022-10-12T10:44:25.757Z,95738.53
2022-10-12T10:46:55.455Z,95736.19
2022-10-12T10:49:47.053Z,95745.09
2022-10-12T10:52:36.909Z,95731.38
2022-10-12T10:55:17.322Z,95739.09
2022-10-12T10:57:57.519Z,95734.34
2022-10-12T11:00:40.993Z,95740.16
2022-10-12T11:03:22.547Z,95739.50
2022-10-12T11:05:58.193Z,95736.28
2022-10-12T11:08:29.952Z,95735.09
2022-10-12T11:11:02.936Z,95730.00
2022-10-12T11:13:38.704Z,95715.72
2022-10-12T11:16:20.709Z,95723.41
2022-10-12T11:18:55.442Z,95726.28
2022-10-12T11:21:38.488Z,95725.66
2022-10-12T11:24:33.685Z,95722.81
2022-10-12T11:27:09.398Z,95714.34
2022-10-12T11:29:38.476Z,95666.59
2022-10-12T11:32:35.152Z,95706.91
2022-10-12T11:35:04.552Z,95718.88
2022-10-12T11:38:16.690Z,95715.88
2022-10-12T11:41:14.014Z,95690.28
2022-10-12T11:43:50.327Z,95716.03
2022-10-12T11:46:23.380Z,95685.53
2022-10-12T11:49:02.721Z,95692.75
2022-10-12T11:51:29.660Z,95704.72
2022-10-12T11:54:16.465Z,95717.16
2022-10-12T11:56:51.398Z,95691.53
2022-10-12T11:59:42.092Z,95644.50
2022-10-12T12:02:38.103Z,95686.78
2022-10-12T12:05:07.063Z,95697.50
2022-10-12T12:07:46.254Z,95705.66
2022-10-12T12:10:35.023Z,95705.06
2022-10-12T12:13:23.011Z,95702.84
2022-10-12T12:15:53.353Z,95697.34
2022-10-12T12:18:28.645Z,95678.31
2022-10-12T12:21:01.423Z,95696.25
2022-10-12T12:23:37.827Z,95701.13
2022-10-12T12:26:15.764Z,95692.66
2022-10-12T12:28:46.634Z,95695.91
2022-10-12T12:31:24.813Z,95691.84
2022-10-12T12:34:03.355Z,95698.94
2022-10-12T12:36:33.392Z,95694.72
2022-10-12T12:39:01.945Z,95694.19
2022-10-12T12:41:52.008Z,95698.44
2022-10-12T12:44:41.539Z,95709.75
2022-10-12T12:47:43.454Z,95701.28
2022-10-12T12:50:02.131Z,95704.59
2022-10-12T12:52:33.500Z,95707.25
2022-10-12T12:55:32.941Z,95702.88
2022-10-12T12:58:36.106Z,95706.13
2022-10-12T13:01:20.513Z,95707.78
2022-10-12T13:04:21.155Z,95709.38
2022-10-12T13:07:02.891Z,95709.25
2022-10-12T13:10:11.148Z,95717.09
2022-10-12T13:12:56.651Z,95713.19
2022-10-12T13:15:46.439Z,95703.03
2022-10-12T13:18:48.031Z,95709.50
2022-10-12T13:21:23.038Z,95704.63
2022-10-12T13:23:56.882Z,95703.53
2022-10-12T13:26:29.380Z,95695.34
2022-10-12T13:28:58.017Z,95696.00
2022-10-12T13:31:41.601Z,95678.75
2022-10-12T13:34:36.000Z,95699.47
2022-10-12T13:37:09.901Z,95697.38
2022-10-12T13:39:43.482Z,95700.16
2022-10-12T13:42:16.779Z,95700.63
2022-10-12T13:44:44.960Z,95708.28
2022-10-12T13:47:26.578Z,95708.56
2022-10-12T13:49:54.407Z,95708.81
2022-10-12T13:52:29.542Z,95705.63
2022-10-12T13:54:59.150Z,95709.41
2022-10-12T13:57:32.684Z,95700.84
2022-10-12T14:00:18.539Z,95702.84
2022-10-12T14:02:59.821Z,95700.78
2022-10-12T14:05:29.008Z,95705.34
2022-10-12T14:08:01.483Z,95708.63
2022-10-12T14:10:37.207Z,95710.94
2022-10-12T14:13:05.131Z,95695.47
2022-10-12T14:15:38.548Z,95711.97
2022-10-12T14:18:31.084Z,95698.09
2022-10-12T14:21:16.571Z,95696.09
2022-10-12T14:24:10.392Z,95698.06
2022-10-12T14:26:40.217Z,95703.00
2022-10-12T14:29:31.288Z,95709.75
2022-10-12T14:32:00.638Z,95705.19
2022-10-12T14:34:27.353Z,95705.00
2022-10-12T14:37:09.418Z,95707.59
2022-10-12T14:39:36.813Z,95704.59
2022-10-12T14:42:17.907Z,95713.91
2022-10-12T14:44:44.787Z,95708.50
2022-10-12T14:47:28.332Z,95701.63
2022-10-12T14:49:57.793Z,95704.13
2022-10-12T14:52:31.493Z,95704.47
2022-10-12T14:54:59.757Z,95708.41
2022-10-12T14:57:29.303Z,95687.59
2022-10-12T14:59:56.930Z,95709.28
2022-10-12T15:02:31.664Z,95703.47
2022-10-12T15:04:59.803Z,95707.88
2022-10-12T15:07:31.833Z,95704.28
2022-10-12T15:09:59.346Z,95705.84
2022-10-12T15:12:30.080Z,95709.78
2022-10-12T15:14:59.705Z,95705.50
2022-10-12T15:17:26.762Z,95702.38
2022-10-12T15:19:54.377Z,95704.75
2022-10-12T15:22:23.797Z,95706.63
2022-10-12T15:24:52.809Z,95708.38
2022-10-12T15:27:21.293Z,95703.31
2022-10-12T15:29:48.664Z,95708.63
2022-10-12T15:32:17.575Z,95711.28
2022-10-12T15:34:45.177Z,95708.53
2022-10-12T15:37:12.205Z,95713.47
2022-10-12T15:39:39.170Z,95709.56
2022-10-12T15:42:06.250Z,95719.16
2022-10-12T15:44:39.787Z,95711.88
2022-10-12T15:47:06.768Z,95721.81
2022-10-12T15:49:33.495Z,95715.78
2022-10-12T15:52:00.409Z,95723.81
2022-10-12T15:54:27.546Z,95717.97
2022-10-12T15:56:54.231Z,95730.38
2022-10-12T15:59:20.916Z,95729.22
2022-10-12T16:01:47.923Z,95731.75
2022-10-12T16:04:15.654Z,95729.38
2022-10-12T16:06:42.674Z,95735.63
2022-10-12T16:09:10.162Z,95718.97
2022-10-12T16:11:37.172Z,95738.94
2022-10-12T16:14:03.980Z,95739.56
2022-10-12T16:16:32.176Z,95737.97
2022-10-12T16:18:58.973Z,95740.03
2022-10-12T16:21:25.892Z,95748.53
2022-10-12T16:23:52.867Z,95738.16
2022-10-12T16:26:19.653Z,95742.66
2022-10-12T16:28:46.539Z,95747.69
2022-10-12T16:31:17.658Z,95745.75
2022-10-12T16:33:45.096Z,95746.59
2022-10-12T16:36:15.169Z,95750.28
2022-10-12T16:38:43.038Z,95754.91
2022-10-12T16:41:15.234Z,95753.44
2022-10-12T16:43:42.771Z,95755.19
2022-10-12T16:46:09.618Z,95754.94
2022-10-12T16:48:37.588Z,95753.34
2022-10-12T16:51:09.450Z,95737.09
2022-10-12T16:53:36.638Z,95758.16
2022-10-12T16:56:04.475Z,95749.69
2022-10-12T16:58:31.361Z,95747.75
2022-10-12T17:00:58.295Z,95756.84
2022-10-12T17:03:25.117Z,95752.84
2022-10-12T17:06:01.340Z,95749.69
2022-10-12T17:08:31.395Z,95752.28
2022-10-12T17:10:58.154Z,95743.25
2022-10-12T17:13:26.139Z,95753.69
2022-10-12T17:15:52.799Z,95743.56
2022-10-12T17:18:19.720Z,95744.53
2022-10-12T17:20:49.390Z,95745.63
2022-10-12T17:23:19.058Z,95737.94
2022-10-12T17:25:46.887Z,95746.44
2022-10-12T17:28:13.803Z,95745.22
2022-10-12T17:30:40.588Z,95737.03
2022-10-12T17:33:07.472Z,95740.19
2022-10-12T17:35:34.189Z,95731.88
2022-10-12T17:38:00.967Z,95728.94
2022-10-12T17:40:27.673Z,95740.25
2022-10-12T17:42:54.682Z,95726.41
2022-10-12T17:45:21.567Z,95741.38
2022-10-12T17:47:49.627Z,95741.84
2022-10-12T17:50:16.652Z,95739.59
2022-10-12T17:52:43.325Z,95725.59
2022-10-12T17:55:29.574Z,95756.63
2022-10-12T17:57:56.935Z,95759.16
2022-10-12T18:00:23.812Z,95752.84
2022-10-12T18:02:50.654Z,95755.75
2022-10-12T18:05:17.534Z,95760.94
2022-10-12T18:07:44.633Z,95774.34
2022-10-12T18:10:11.655Z,95764.31
2022-10-12T18:12:38.637Z,95771.44
2022-10-12T18:15:07.555Z,95772.00
2022-10-12T18:17:35.223Z,95764.22
2022-10-12T18:20:02.221Z,95765.41
2022-10-12T18:22:32.432Z,95760.19
2022-10-12T18:24:59.795Z,95759.28
2022-10-12T18:27:38.468Z,95761.25
2022-10-12T18:30:05.980Z,95758.41
2022-10-12T18:32:32.793Z,95741.84
2022-10-12T18:34:59.605Z,95762.97
2022-10-12T18:37:26.360Z,95742.66
2022-10-12T18:39:54.429Z,95753.97
2022-10-12T18:42:21.380Z,95765.50
2022-10-12T18:44:48.184Z,95764.09
2022-10-12T18:47:15.058Z,95764.47
2022-10-12T18:49:41.759Z,95767.41
2022-10-12T18:52:08.789Z,95765.44
2022-10-12T18:54:35.807Z,95767.16
2022-10-12T18:57:02.675Z,95764.84
2022-10-12T18:59:29.670Z,95756.50
2022-10-12T19:01:56.567Z,95760.59
2022-10-12T19:04:23.784Z,95759.13
2022-10-12T19:06:55.585Z,95760.00
2022-10-12T19:09:24.639Z,95767.81
2022-10-12T19:11:51.429Z,95772.47
2022-10-12T19:14:18.258Z,95771.41
2022-10-12T19:16:46.029Z,95769.81
2022-10-12T19:19:20.440Z,95773.66
2022-10-12T19:21:49.570Z,95775.47
2022-10-12T19:24:16.328Z,95776.88
2022-10-12T19:26:45.294Z,95783.44
2022-10-12T19:29:12.118Z,95776.16
2022-10-12T19:31:42.833Z,95786.59
2022-10-12T19:34:13.400Z,95786.78
2022-10-12T19:36:40.697Z,95777.47
2022-10-12T19:39:09.878Z,95785.03
2022-10-12T19:41:37.039Z,95784.03
2022-10-12T19:44:04.990Z,95788.19
2022-10-12T19:46:32.487Z,95784.59
2022-10-12T19:49:00.049Z,95785.75
2022-10-12T19:51:28.823Z,95795.50
2022-10-12T19:53:57.665Z,95796.38
2022-10-12T19:56:26.135Z,95796.03
2022-10-12T19:58:55.547Z,95791.50
2022-10-12T20:01:34.854Z,95789.47
2022-10-12T20:04:04.320Z,95790.69
2022-10-12T20:06:31.368Z,95788.44
2022-10-12T20:09:04.084Z,95779.69
2022-10-12T20:11:31.270Z,95797.16
2022-10-12T20:13:58.445Z,95796.44
2022-10-12T20:16:26.909Z,95784.91
2022-10-12T20:18:55.776Z,95795.06
2022-10-12T20:21:23.698Z,95794.84
2022-10-12T20:23:51.495Z,95797.78
2022-10-12T20:26:22.788Z,95795.06
2022-10-12T20:28:50.667Z,95792.84
2022-10-12T20:31:19.369Z,95799.28
2022-10-12T20:33:50.743Z,95793.50
2022-10-12T20:36:22.218Z,95800.97
2022-10-12T20:38:49.592Z,95792.59
2022-10-12T20:41:21.243Z,95801.28
2022-10-12T20:43:48.242Z,95797.13
2022-10-12T20:46:16.710Z,95806.78
2022-10-12T20:48:44.963Z,95812.94
2022-10-12T20:51:20.912Z,95811.38
2022-10-12T20:53:48.135Z,95816.22
2022-10-12T20:56:14.833Z,95810.91
2022-10-12T20:58:41.663Z,95805.16
2022-10-12T21:01:15.411Z,95824.56
2022-10-12T21:03:43.219Z,95819.09
2022-10-12T21:06:12.710Z,95823.31
2022-10-12T21:08:41.105Z,95823.91
2022-10-12T21:11:09.771Z,95821.75
2022-10-12T21:13:41.578Z,95812.72
2022-10-12T21:16:09.619Z,95802.41
2022-10-12T21:18:38.426Z,95806.69
2022-10-12T21:21:11.692Z,95804.16
2022-10-12T21:23:40.714Z,95786.00
2022-10-12T21:26:13.051Z,95797.19
2022-10-12T21:28:41.329Z,95793.44
2022-10-12T21:31:08.741Z,95803.38
2022-10-12T21:33:36.677Z,95801.25
2022-10-12T21:36:27.091Z,95793.91
2022-10-12T21:38:54.331Z,95807.19
2022-10-12T21:41:23.597Z,95808.88
2022-10-12T21:43:51.225Z,95807.94
2022-10-12T21:46:21.415Z,95804.72
2022-10-12T21:48:49.976Z,95801.03
2022-10-12T21:51:18.572Z,95808.41
2022-10-12T21:53:45.577Z,95805.00
2022-10-12T21:56:34.017Z,95813.16
2022-10-12T21:59:02.311Z,95817.00
2022-10-12T22:01:38.085Z,95810.03
2022-10-12T22:04:07.422Z,95799.00
2022-10-12T22:06:35.133Z,95800.34
2022-10-12T22:09:22.286Z,95792.38
2022-10-12T22:11:50.234Z,95799.69
2022-10-12T22:14:18.818Z,95792.16
2022-10-12T22:16:46.092Z,95791.16
2022-10-12T22:19:15.266Z,95806.50
2022-10-12T22:21:42.218Z,95802.75
2022-10-12T22:24:09.106Z,95801.69
2022-10-12T22:26:36.342Z,95799.31
2022-10-12T22:29:05.212Z,95806.91
2022-10-12T22:31:33.422Z,95799.53
2022-10-12T22:34:00.571Z,95806.75
2022-10-12T22:36:31.018Z,95811.16
2022-10-12T22:38:58.855Z,95820.84
2022-10-12T22:41:25.624Z,95811.97
2022-10-12T22:43:55.207Z,95825.19
2022-10-12T22:46:24.195Z,95820.97
2022-10-12T22:48:52.712Z,95824.66
2022-10-12T22:51:30.484Z,95825.03
2022-10-12T22:53:57.595Z,95823.66
2022-10-12T22:56:24.408Z,95823.03
2022-10-12T22:58:56.225Z,95812.50
2022-10-12T23:01:23.585Z,95829.97
2022-10-12T23:03:50.779Z,95836.78
2022-10-12T23:06:18.833Z,95827.59
2022-10-12T23:08:46.520Z,95838.56
2022-10-12T23:11:16.215Z,95833.00
2022-10-12T23:13:43.152Z,95843.56
2022-10-12T23:16:19.472Z,95844.41
2022-10-12T23:18:46.312Z,95835.47
2022-10-12T23:21:16.346Z,95846.34
2022-10-12T23:23:44.345Z,95840.25
2022-10-12T23:26:14.130Z,95833.94
2022-10-12T23:28:41.258Z,95846.22
2022-10-12T23:31:18.625Z,95839.31
2022-10-12T23:33:46.076Z,95834.53
2022-10-12T23:36:15.753Z,95841.38
2022-10-12T23:38:43.935Z,95849.88
2022-10-12T23:41:12.165Z,95833.47
2022-10-12T23:43:39.392Z,95831.38
2022-10-12T23:46:06.496Z,95839.25
2022-10-12T23:48:33.708Z,95829.41
2022-10-12T23:51:00.904Z,95837.59
2022-10-12T23:53:27.760Z,95840.81
2022-10-12T23:55:54.784Z,95828.19
2022-10-12T23:58:22.143Z,95837.19
